createdAt,value
2022-12-25T00:02:40.955Z,99728.78
2022-12-25T00:08:03.469Z,99738.22
2022-12-25T00:13:26.038Z,99761.72
2022-12-25T00:18:49.132Z,99745.56
2022-12-25T00:24:11.240Z,99754.13
2022-12-25T00:29:33.948Z,99781.81
2022-12-25T00:34:56.043Z,99769.81
2022-12-25T00:40:18.222Z,99809.84
2022-12-25T00:45:40.516Z,99790.91
2022-12-25T00:51:09.194Z,99825.41
2022-12-25T00:56:31.071Z,99835.72
2022-12-25T01:01:53.598Z,99852.63
2022-12-25T01:07:17.406Z,99865.53
2022-12-25T01:12:42.208Z,99869.88
2022-12-25T01:18:07.876Z,99860.47
2022-12-25T01:23:30.184Z,99869.47
2022-12-25T01:28:53.289Z,99876.44
2022-12-25T01:34:15.557Z,99881.38
2022-12-25T01:39:37.872Z,99892.19
2022-12-25T01:45:17.741Z,99907.84
2022-12-25T01:50:44.643Z,99906.97
2022-12-25T01:56:09.181Z,99912.53
2022-12-25T02:01:31.115Z,99919.66
2022-12-25T02:06:53.029Z,99950.25
2022-12-25T02:12:23.783Z,99946.19
2022-12-25T02:17:45.925Z,99952.53
2022-12-25T02:23:50.328Z,99951.56
2022-12-25T02:29:51.943Z,99969.28
2022-12-25T02:35:32.524Z,99949.69
2022-12-25T02:41:02.894Z,99989.16
2022-12-25T02:46:44.010Z,99990.22
2022-12-25T02:52:46.303Z,100010.22
2022-12-25T02:58:34.007Z,99986.97
2022-12-25T03:04:20.063Z,100017.59
2022-12-25T03:10:10.933Z,100008.75
2022-12-25T03:15:53.848Z,100049.59
2022-12-25T03:21:35.073Z,100042.16
2022-12-25T03:26:59.892Z,100048.66
2022-12-25T03:32:55.246Z,100068.38
2022-12-25T03:38:50.874Z,100071.88
2022-12-25T03:44:54.843Z,100089.38
2022-12-25T03:50:49.793Z,100099.75
2022-12-25T03:56:33.005Z,100092.69
2022-12-25T04:02:14.289Z,100104.47
2022-12-25T04:07:56.137Z,100105.28
2022-12-25T04:13:53.616Z,100120.31
2022-12-25T04:19:34.536Z,100122.19
2022-12-25T04:25:15.587Z,100113.50
2022-12-25T04:30:56.343Z,100140.31
2022-12-25T04:36:18.435Z,100114.09
2022-12-25T04:41:40.215Z,100126.72
2022-12-25T04:47:05.944Z,100156.56
2022-12-25T04:52:39.695Z,100166.94
2022-12-25T04:58:01.827Z,100157.38
2022-12-25T05:03:25.699Z,100167.91
2022-12-25T05:08:47.952Z,100188.66
2022-12-25T05:14:10.020Z,100191.69
2022-12-25T05:19:32.406Z,100208.56
2022-12-25T05:24:54.235Z,100213.03
2022-12-25T05:30:16.843Z,100231.72
2022-12-25T05:36:07.754Z,100249.63
2022-12-25T05:41:34.259Z,100257.13
2022-12-25T05:46:56.789Z,100260.97
2022-12-25T05:52:18.793Z,100262.38
2022-12-25T05:57:40.815Z,100276.19
2022-12-25T06:03:03.156Z,100275.16
2022-12-25T06:08:25.169Z,100282.91
2022-12-25T06:13:53.691Z,100294.69
2022-12-25T06:19:15.578Z,100301.16
2022-12-25T06:24:37.202Z,100305.63
2022-12-25T06:29:59.288Z,100311.09
2022-12-25T06:35:21.084Z,100316.59
2022-12-25T06:40:42.043Z,100326.78
2022-12-25T06:46:06.657Z,100318.44
2022-12-25T06:51:31.155Z,100328.97
2022-12-25T06:56:53.317Z,100328.56
2022-12-25T07:02:22.195Z,100347.06
2022-12-25T07:07:44.389Z,100352.34
2022-12-25T07:13:09.048Z,100361.28
2022-12-25T07:18:32.392Z,100391.53
2022-12-25T07:23:54.460Z,100362.81
2022-12-25T07:29:16.848Z,100383.13
2022-12-25T07:34:38.514Z,100384.06
2022-12-25T07:40:00.573Z,100417.59
2022-12-25T07:45:22.592Z,100429.38
2022-12-25T07:50:44.785Z,100412.53
2022-12-25T07:56:10.802Z,100405.44
2022-12-25T08:01:32.924Z,100423.34
2022-12-25T08:06:55.007Z,100423.38
2022-12-25T08:12:17.385Z,100436.44
2022-12-25T08:17:39.213Z,100438.06
2022-12-25T08:23:01.647Z,100438.28
2022-12-25T08:28:23.343Z,100432.78
2022-12-25T08:33:46.198Z,100452.09
2022-12-25T08:39:09.317Z,100418.81
2022-12-25T08:44:31.272Z,100444.88
2022-12-25T08:49:54.141Z,100473.19
2022-12-25T08:55:19.291Z,100439.94
2022-12-25T09:00:41.594Z,100464.81
2022-12-25T09:06:09.218Z,100474.81
2022-12-25T09:11:31.235Z,100460.53
2022-12-25T09:16:53.200Z,100505.09
2022-12-25T09:22:14.963Z,100504.66
2022-12-25T09:27:37.357Z,100520.13
2022-12-25T09:32:59.647Z,100505.81
2022-12-25T09:38:22.354Z,100531.97
2022-12-25T09:43:52.532Z,100515.00
2022-12-25T09:49:31.695Z,100520.56
2022-12-25T09:55:21.194Z,100543.34
2022-12-25T10:00:52.443Z,100525.59
2022-12-25T10:06:14.585Z,100541.56
2022-12-25T10:11:59.514Z,100538.00
2022-12-25T10:17:53.753Z,100568.97
2022-12-25T10:23:20.655Z,100552.72
2022-12-25T10:28:46.439Z,100540.44
2022-12-25T10:34:12.625Z,100544.06
2022-12-25T10:39:36.703Z,100566.78
2022-12-25T10:45:01.933Z,100601.97
2022-12-25T10:50:26.323Z,100569.28
2022-12-25T10:56:05.626Z,100600.69
2022-12-25T11:01:28.918Z,100570.03
2022-12-25T11:07:14.145Z,100607.34
2022-12-25T11:12:38.799Z,100583.22
2022-12-25T11:18:01.232Z,100581.59
2022-12-25T11:26:49.934Z,100605.59
2022-12-25T11:32:29.053Z,100640.56
2022-12-25T11:37:54.253Z,100611.25
2022-12-25T11:43:19.417Z,100655.22
2022-12-25T11:48:50.596Z,100647.06
2022-12-25T11:54:18.217Z,100646.69
2022-12-25T12:00:10.803Z,100648.31
2022-12-25T12:05:51.551Z,100655.41
2022-12-25T12:11:24.552Z,100653.59
2022-12-25T12:16:46.576Z,100668.97
2022-12-25T12:22:22.034Z,100654.06
2022-12-25T12:27:44.812Z,100666.88
2022-12-25T12:33:09.044Z,100668.97
2022-12-25T12:38:33.764Z,100692.34
2022-12-25T12:44:00.412Z,100697.88
2022-12-25T12:49:35.541Z,100682.69
2022-12-25T12:55:03.353Z,100685.75
2022-12-25T13:00:28.110Z,100678.97
2022-12-25T13:06:03.157Z,100684.78
2022-12-25T13:11:29.264Z,100709.66
2022-12-25T13:16:54.953Z,100711.66
2022-12-25T13:22:26.218Z,100743.91
2022-12-25T13:27:57.034Z,100716.13
2022-12-25T13:33:20.941Z,100738.34
2022-12-25T13:38:47.967Z,100725.84
2022-12-25T13:44:26.854Z,100763.94
2022-12-25T13:49:51.250Z,100743.41
2022-12-25T13:55:40.464Z,100764.50
2022-12-25T14:01:03.937Z,100741.75
2022-12-25T14:06:29.039Z,100727.22
2022-12-25T14:11:53.208Z,100773.78
2022-12-25T14:17:16.675Z,100736.34
2022-12-25T14:22:39.127Z,100743.91
2022-12-25T14:28:07.024Z,100772.09
2022-12-25T14:33:37.475Z,100741.91
2022-12-25T14:39:02.253Z,100767.34
2022-12-25T14:44:41.594Z,100780.41
2022-12-25T14:50:14.792Z,100753.09
2022-12-25T14:55:38.383Z,100796.53
2022-12-25T15:01:05.432Z,100766.47
2022-12-25T15:06:27.927Z,100798.00
2022-12-25T15:11:56.084Z,100776.19
2022-12-25T15:17:30.463Z,100764.88
2022-12-25T15:23:18.481Z,100789.84
2022-12-25T15:28:44.013Z,100747.84
2022-12-25T15:34:29.176Z,100786.22
2022-12-25T15:39:51.444Z,100835.41
2022-12-25T15:45:25.804Z,100828.88
2022-12-25T15:50:48.275Z,100831.34
2022-12-25T15:56:12.378Z,100828.72
2022-12-25T16:01:34.522Z,100802.09
2022-12-25T16:06:57.134Z,100815.09
2022-12-25T16:12:20.423Z,100824.09
2022-12-25T16:17:43.194Z,100841.81
2022-12-25T16:23:05.507Z,100832.09
2022-12-25T16:28:28.018Z,100838.91
2022-12-25T16:33:50.123Z,100842.97
2022-12-25T16:39:12.845Z,100819.50
2022-12-25T16:44:40.990Z,100862.03
2022-12-25T16:50:04.523Z,100836.66
2022-12-25T16:55:30.197Z,100880.06
2022-12-25T17:00:53.365Z,100840.00
2022-12-25T17:06:17.366Z,100879.97
2022-12-25T17:11:43.216Z,100863.84
2022-12-25T17:17:05.691Z,100837.28
2022-12-25T17:22:30.941Z,100827.53
2022-12-25T17:27:53.395Z,100863.50
2022-12-25T17:33:15.376Z,100854.63
2022-12-25T17:38:38.199Z,100867.72
2022-12-25T17:44:00.099Z,100866.91
2022-12-25T17:49:22.944Z,100884.69
2022-12-25T17:54:44.763Z,100893.91
2022-12-25T18:00:07.364Z,100874.06
2022-12-25T18:05:29.322Z,100895.34
2022-12-25T18:10:52.703Z,100890.69
2022-12-25T18:16:16.583Z,100919.88
2022-12-25T18:21:38.844Z,100925.38
2022-12-25T18:27:00.902Z,100930.03
2022-12-25T18:32:27.875Z,100928.59
2022-12-25T18:44:27.945Z,100922.22
2022-12-25T18:49:49.997Z,100928.78
2022-12-25T18:55:12.182Z,100919.44
2022-12-25T19:00:34.612Z,100926.34
2022-12-25T19:05:57.142Z,100941.03
2022-12-25T19:11:20.014Z,100963.56
2022-12-25T19:16:42.277Z,100966.03
2022-12-25T19:22:04.514Z,100965.50
2022-12-25T19:27:26.856Z,100966.16
2022-12-25T19:32:49.155Z,100963.88
2022-12-25T19:38:11.277Z,100991.53
2022-12-25T19:43:37.324Z,100983.88
2022-12-25T19:49:04.621Z,100997.47
2022-12-25T19:54:26.726Z,101015.50
2022-12-25T19:59:50.165Z,101010.56
2022-12-25T20:05:12.358Z,101019.22
2022-12-25T20:10:34.464Z,101018.53
2022-12-25T20:16:01.918Z,100992.00
2022-12-25T20:21:24.843Z,101036.94
2022-12-25T20:26:48.028Z,101044.94
2022-12-25T20:32:11.135Z,101047.53
2022-12-25T20:37:36.633Z,101009.84
2022-12-25T20:42:58.505Z,101042.41
2022-12-25T20:48:20.651Z,101063.97
2022-12-25T20:53:42.845Z,101065.47
2022-12-25T20:59:04.637Z,101053.59
2022-12-25T21:04:26.906Z,101054.16
2022-12-25T21:09:49.108Z,101075.94
2022-12-25T21:15:15.482Z,101076.09
2022-12-25T21:20:38.222Z,101094.72
2022-12-25T21:26:00.547Z,101097.69
2022-12-25T21:31:22.787Z,101087.31
2022-12-25T21:36:44.554Z,101072.56
2022-12-25T21:42:06.540Z,101084.81
2022-12-25T21:48:02.172Z,101066.50
2022-12-25T21:53:19.944Z,101094.47
2022-12-25T21:58:42.593Z,101096.44
2022-12-25T22:04:07.535Z,101101.91
2022-12-25T22:09:29.346Z,101106.09
2022-12-25T22:14:59.186Z,101074.47
2022-12-25T22:20:25.305Z,101104.81
2022-12-25T22:25:46.981Z,101103.00
2022-12-25T22:31:09.543Z,101072.22
2022-12-25T22:43:09.627Z,101066.13
2022-12-25T22:48:32.616Z,101081.84
2022-12-25T22:53:58.794Z,101105.72
2022-12-25T22:59:26.263Z,101088.81
2022-12-25T23:04:48.524Z,101112.50
2022-12-25T23:10:11.649Z,101130.19
2022-12-25T23:15:34.613Z,101111.53
2022-12-25T23:21:20.104Z,101120.47
2022-12-25T23:26:42.473Z,101136.97
2022-12-25T23:32:09.605Z,101162.47
2022-12-25T23:37:31.956Z,101137.59
2022-12-25T23:42:54.413Z,101158.25
2022-12-25T23:48:16.674Z,101127.56
2022-12-25T23:53:38.973Z,101150.22
2022-12-25T23:59:01.457Z,101149.28
